Time;durP1;ratioP1;P1;durP2;ratioP2;P2;SDS_P1;SDS_P2;PMS_P1;PMS_P2;Temp;Humidity;BMP_temperature;BMP_pressure;BME280_temperature;BME280_humidity;BME280_pressure;Samples;Min_cycle;Max_cycle;Signal;HPM_P1;HPM_P2
2021/12/11 00:00:35;;;;;;;31.27;16.75;;;-0.30;99.90;;;;;;5086150;28;20073;-58
2021/12/11 00:03:01;;;;;;;;;;;-0.30;99.90;;;;;;5088900;28;20047;-57
2021/12/11 00:05:27;;;;;;;32.58;16.95;;;-0.30;99.90;;;;;;5088855;28;19920;-57
2021/12/11 00:07:53;;;;;;;29.77;16.55;;;-0.30;99.90;;;;;;5090851;28;20483;-57
2021/12/11 00:10:26;;;;;;;30.17;17.10;;;-0.30;99.90;;;;;;5106544;28;20052;-57
2021/12/11 00:12:58;;;;;;;29.30;16.52;;;-0.30;99.90;;;;;;5111303;28;20044;-57
2021/12/11 00:15:34;;;;;;;27.67;15.45;;;-0.20;99.90;;;;;;5089477;28;20044;-56
2021/12/11 00:18:04;;;;;;;26.70;16.33;;;-0.20;99.90;;;;;;5108668;28;20040;-56
2021/12/11 00:20:33;;;;;;;29.67;16.50;;;-0.20;99.90;;;;;;5108063;28;20035;-56
2021/12/11 00:23:00;;;;;;;26.38;16.05;;;-0.20;99.90;;;;;;5110763;28;20073;-57
2021/12/11 00:25:27;;;;;;;26.15;16.27;;;-0.20;99.90;;;;;;5105555;28;20027;-56
2021/12/11 00:28:02;;;;;;;28.92;16.27;;;-0.20;99.90;;;;;;5087195;28;20126;-57
2021/12/11 00:30:33;;;;;;;27.27;16.23;;;-0.20;99.90;;;;;;5108321;28;20036;-58
2021/12/11 00:33:01;;;;;;;32.75;16.85;;;-0.20;99.90;;;;;;5110617;28;20463;-57
2021/12/11 00:35:28;;;;;;;29.50;16.00;;;-0.20;99.90;;;;;;5072923;28;20047;-55
2021/12/11 00:38:04;;;;;;;25.27;15.70;;;-0.20;99.90;;;;;;5110998;28;20089;-57
2021/12/11 00:40:30;;;;;;;31.83;16.17;;;-0.20;99.90;;;;;;5090847;28;20036;-56
2021/12/11 00:43:02;;;;;;;31.70;16.40;;;-0.30;99.90;;;;;;5110904;28;20039;-57
2021/12/11 00:45:31;;;;;;;29.27;16.60;;;-0.20;99.90;;;;;;5112219;28;20035;-57
2021/12/11 00:48:01;;;;;;;30.80;16.60;;;-0.30;99.90;;;;;;5111582;28;20067;-57
2021/12/11 00:50:32;;;;;;;34.28;17.85;;;-0.30;99.90;;;;;;5109999;28;20027;-57
2021/12/11 00:53:14;;;;;;;32.67;16.85;;;-0.30;99.90;;;;;;5092986;28;20028;-57
2021/12/11 00:55:46;;;;;;;32.65;17.80;;;-0.30;99.90;;;;;;5110746;28;20036;-58
2021/12/11 00:58:28;;;;;;;29.35;16.30;;;-0.30;99.90;;;;;;5114424;28;20482;-56
2021/12/11 01:00:59;;;;;;;29.60;16.95;;;-0.30;99.90;;;;;;5089262;28;20040;-56
2021/12/11 01:03:31;;;;;;;30.38;16.42;;;-0.30;99.90;;;;;;5109744;28;20047;-54
2021/12/11 01:05:59;;;;;;;29.35;16.98;;;-0.30;99.90;;;;;;5113432;28;20051;-57
2021/12/11 01:08:35;;;;;;;28.77;16.25;;;-0.40;99.90;;;;;;5113024;28;20118;-57
2021/12/11 01:11:12;;;;;;;25.52;15.52;;;-0.40;99.90;;;;;;5114581;28;20043;-57
2021/12/11 01:13:45;;;;;;;28.20;16.08;;;-0.40;99.90;;;;;;5112323;28;20036;-57
2021/12/11 01:16:14;;;;;;;29.65;15.45;;;-0.40;99.90;;;;;;5114419;28;20047;-55
2021/12/11 01:18:46;;;;;;;29.30;16.20;;;-0.40;99.90;;;;;;5102757;28;20230;-57
2021/12/11 01:21:57;;;;;;;27.80;15.25;;;-0.40;99.90;;;;;;5111644;28;20471;-58
2021/12/11 01:24:41;;;;;;;26.60;15.05;;;-0.40;99.90;;;;;;5110644;28;20101;-57
2021/12/11 01:27:08;;;;;;;26.92;15.73;;;-0.40;99.90;;;;;;5114360;28;20036;-57
2021/12/11 01:29:34;;;;;;;28.23;15.95;;;-0.50;99.90;;;;;;5094611;28;20047;-58
2021/12/11 01:32:01;;;;;;;30.20;16.05;;;-0.50;99.90;;;;;;5112826;28;20399;-57
2021/12/11 01:34:28;;;;;;;28.33;16.08;;;-0.50;99.90;;;;;;5103376;28;20093;-56
2021/12/11 01:36:55;;;;;;;26.58;15.85;;;-0.50;99.90;;;;;;5112843;28;20043;-58
2021/12/11 01:39:29;;;;;;;33.03;16.23;;;-0.50;99.90;;;;;;5111652;28;20036;-57
2021/12/11 01:41:57;;;;;;;25.13;14.73;;;-0.50;99.90;;;;;;5113821;28;20032;-57
2021/12/11 01:44:33;;;;;;;23.67;13.77;;;-0.50;99.90;;;;;;5111318;28;20074;-56
2021/12/11 01:47:06;;;;;;;21.60;13.38;;;-0.50;99.90;;;;;;5113717;28;20035;-55
2021/12/11 01:49:33;;;;;;;21.10;13.73;;;-0.60;99.90;;;;;;5088143;28;20458;-56
2021/12/11 01:52:08;;;;;;;25.45;14.90;;;-0.60;99.90;;;;;;5110536;28;20051;-55
2021/12/11 01:54:38;;;;;;;28.08;15.80;;;-0.60;99.90;;;;;;5106292;28;20052;-57
2021/12/11 01:57:11;;;;;;;26.42;15.05;;;-0.70;99.90;;;;;;5112802;28;20031;-57
2021/12/11 01:59:40;;;;;;;27.00;15.48;;;-0.70;99.90;;;;;;5110316;28;20096;-57
2021/12/11 02:02:20;;;;;;;25.50;14.90;;;-0.70;99.90;;;;;;5099605;28;20494;-57
2021/12/11 02:04:47;;;;;;;25.77;14.65;;;-0.70;99.90;;;;;;5108930;28;20039;-57
2021/12/11 02:07:29;;;;;;;26.33;15.75;;;-0.80;99.90;;;;;;5112977;28;20047;-56
2021/12/11 02:09:58;;;;;;;25.92;15.07;;;-0.80;99.90;;;;;;5109543;28;20058;-58
2021/12/11 02:12:37;;;;;;;26.70;15.10;;;-0.80;99.90;;;;;;5112371;28;20043;-58
2021/12/11 02:15:07;;;;;;;27.73;15.75;;;-0.90;99.90;;;;;;5095159;28;20031;-57
2021/12/11 02:18:06;;;;;;;24.05;13.98;;;-0.90;99.90;;;;;;5090699;28;20494;-57
2021/12/11 02:20:37;;;;;;;23.27;14.63;;;-0.90;99.90;;;;;;5109786;28;20038;-57
2021/12/11 02:23:05;;;;;;;24.80;13.63;;;-0.90;99.90;;;;;;5112990;28;20035;-57
2021/12/11 02:25:41;;;;;;;25.35;14.43;;;-1.00;99.90;;;;;;5093726;28;20433;-57
2021/12/11 02:28:28;;;;;;;25.33;15.05;;;-1.00;99.90;;;;;;5112568;28;20038;-57
2021/12/11 02:31:05;;;;;;;27.50;14.70;;;-1.00;99.90;;;;;;5112788;28;20581;-54
2021/12/11 02:33:44;;;;;;;26.70;14.60;;;-1.00;99.90;;;;;;5108171;28;21858;-57
2021/12/11 02:36:12;;;;;;;30.05;15.48;;;-1.10;99.90;;;;;;5104797;28;20039;-57
2021/12/11 02:38:51;;;;;;;25.23;14.85;;;-1.10;99.90;;;;;;5108468;28;20047;-57
2021/12/11 02:41:29;;;;;;;24.40;14.43;;;-1.10;99.90;;;;;;5111719;28;20398;-58
2021/12/11 02:44:01;;;;;;;25.80;14.95;;;-0.50;99.90;;;;;;5090145;28;20040;-57
2021/12/11 02:46:41;;;;;;;25.52;15.10;;;-1.10;99.90;;;;;;5111579;28;20043;-58
2021/12/11 02:49:17;;;;;;;24.33;14.80;;;-1.10;99.90;;;;;;5110249;28;20043;-57
2021/12/11 02:51:45;;;;;;;26.35;14.82;;;-1.20;99.90;;;;;;5093834;28;20055;-58
2021/12/11 02:54:14;;;;;;;21.90;13.82;;;-1.20;99.90;;;;;;5109651;28;20043;-57
2021/12/11 02:56:55;;;;;;;23.75;14.48;;;-1.20;99.90;;;;;;5112476;28;20066;-57
2021/12/11 02:59:25;;;;;;;20.55;13.10;;;-1.30;99.90;;;;;;5104513;28;20043;-57
2021/12/11 03:01:55;;;;;;;19.08;12.15;;;-1.30;99.90;;;;;;5108111;28;20269;-56
2021/12/11 03:04:42;;;;;;;19.73;11.93;;;-1.30;99.90;;;;;;5103991;28;20044;-57
2021/12/11 03:07:12;;;;;;;19.60;12.48;;;-1.30;99.90;;;;;;5112232;28;20176;-58
2021/12/11 03:09:43;;;;;;;25.88;13.93;;;-1.40;99.90;;;;;;5110073;28;20055;-56
2021/12/11 03:12:11;;;;;;;34.67;14.52;;;-1.40;99.90;;;;;;5093857;28;20505;-58
2021/12/11 03:14:37;;;;;;;23.08;14.07;;;-1.50;99.90;;;;;;5106509;28;20047;-57
2021/12/11 03:17:04;;;;;;;32.92;14.10;;;-1.50;99.90;;;;;;5111887;28;20461;-57
2021/12/11 03:19:32;;;;;;;23.50;13.60;;;-1.50;99.90;;;;;;5106544;28;20036;-58
2021/12/11 03:22:02;;;;;;;27.50;13.93;;;-1.50;99.90;;;;;;5111702;28;20040;-58
2021/12/11 03:24:29;;;;;;;39.15;14.95;;;-1.50;99.90;;;;;;5109957;28;20035;-56
2021/12/11 03:26:56;;;;;;;27.88;14.48;;;-1.60;99.90;;;;;;5111729;28;20032;-54
2021/12/11 03:29:22;;;;;;;27.67;14.85;;;-1.60;99.90;;;;;;5109020;28;20043;-57
2021/12/11 03:31:49;;;;;;;30.33;16.13;;;-1.70;99.90;;;;;;5109228;28;20040;-57
2021/12/11 03:34:21;;;;;;;31.90;16.88;;;-1.70;99.90;;;;;;5105715;28;20050;-54
2021/12/11 03:36:47;;;;;;;26.08;15.32;;;-1.70;99.90;;;;;;5111558;28;20486;-55
2021/12/11 03:39:20;;;;;;;27.70;16.15;;;-1.70;99.90;;;;;;5108864;28;20043;-56
2021/12/11 03:41:48;;;;;;;30.20;16.25;;;-1.80;99.90;;;;;;5109700;28;20038;-56
2021/12/11 03:44:15;;;;;;;27.13;15.38;;;-1.80;99.90;;;;;;5108241;28;20486;-56
2021/12/11 03:46:43;;;;;;;30.67;15.07;;;-1.80;99.90;;;;;;5111551;28;20539;-58
2021/12/11 03:49:14;;;;;;;26.40;15.73;;;-1.80;99.90;;;;;;5070100;28;20039;-58
2021/12/11 03:51:42;;;;;;;28.75;15.55;;;-1.80;99.90;;;;;;5109457;28;20100;-56
2021/12/11 03:54:11;;;;;;;24.20;14.63;;;-1.80;99.90;;;;;;5107060;28;20040;-57
2021/12/11 03:56:38;;;;;;;65.68;16.35;;;-1.80;99.90;;;;;;5111236;28;20057;-58
2021/12/11 03:59:10;;;;;;;136.15;18.00;;;-1.90;99.90;;;;;;5108250;28;20046;-57
2021/12/11 04:01:51;;;;;;;122.03;16.00;;;-1.90;99.90;;;;;;5107322;28;20035;-57
2021/12/11 04:04:38;;;;;;;108.00;16.15;;;-1.90;99.90;;;;;;5104066;28;20044;-58
2021/12/11 04:07:08;;;;;;;146.85;18.23;;;-2.00;99.90;;;;;;5099331;28;20051;-57
2021/12/11 04:09:34;;;;;;;130.13;17.38;;;-2.00;99.90;;;;;;5108575;28;20503;-57
2021/12/11 04:12:01;;;;;;;128.80;18.15;;;-2.00;99.90;;;;;;5110937;28;20049;-58
2021/12/11 04:14:31;;;;;;;125.65;18.65;;;-2.00;99.90;;;;;;5108588;28;20039;-57
2021/12/11 04:16:59;;;;;;;124.38;19.00;;;-2.00;99.90;;;;;;5092815;28;20059;-58
2021/12/11 04:19:26;;;;;;;116.55;18.73;;;-2.00;99.90;;;;;;5103167;28;20363;-56
2021/12/11 04:21:52;;;;;;;174.88;21.67;;;-2.00;99.90;;;;;;5111475;28;20028;-56
2021/12/11 04:24:20;;;;;;;139.60;21.85;;;-2.00;99.90;;;;;;5109113;28;20043;-56
2021/12/11 04:26:47;;;;;;;127.97;20.55;;;-2.00;99.90;;;;;;5109642;28;20498;-58
2021/12/11 04:29:13;;;;;;;96.57;20.85;;;-0.90;99.90;;;;;;5108438;28;20168;-55
2021/12/11 04:31:42;;;;;;;95.03;20.65;;;-2.00;99.90;;;;;;5091629;28;20479;-57
2021/12/11 04:34:12;;;;;;;76.47;20.73;;;-2.00;99.90;;;;;;5102423;28;20083;-58
2021/12/11 04:36:42;;;;;;;90.20;19.08;;;-2.00;99.90;;;;;;5110884;28;20191;-58
2021/12/11 04:39:12;;;;;;;62.60;19.65;;;-1.90;99.90;;;;;;5105034;28;20032;-55
2021/12/11 04:41:48;;;;;;;69.97;18.48;;;-2.00;99.90;;;;;;5110142;28;20039;-58
2021/12/11 04:44:22;;;;;;;69.65;17.73;;;-2.00;99.90;;;;;;5091406;28;20039;-57
2021/12/11 04:46:49;;;;;;;41.72;16.08;;;-2.00;99.90;;;;;;5105630;28;20035;-58
2021/12/11 04:49:26;;;;;;;39.75;16.10;;;-2.10;99.90;;;;;;5089738;28;20036;-57
2021/12/11 04:52:07;;;;;;;38.28;18.13;;;-2.10;99.90;;;;;;5110667;28;20054;-56
2021/12/11 05:05:12;;;;;;;29.73;18.02;;;-2.10;99.90;;;;;;5107053;28;20118;-57
2021/12/11 05:07:54;;;;;;;30.45;18.00;;;-2.10;99.90;;;;;;5107573;28;20137;-57
2021/12/11 05:10:32;;;;;;;34.30;19.52;;;-2.00;99.90;;;;;;5110584;28;20074;-57
2021/12/11 05:12:59;;;;;;;41.50;20.75;;;-2.00;99.90;;;;;;5108473;28;20135;-58
2021/12/11 05:15:40;;;;;;;32.33;19.23;;;-2.00;99.90;;;;;;5110516;28;20118;-57
2021/12/11 05:18:11;;;;;;;29.65;17.88;;;-1.90;99.90;;;;;;5108771;28;20032;-58
2021/12/11 05:20:38;;;;;;;33.63;19.65;;;-1.90;99.90;;;;;;5101895;28;20024;-58
2021/12/11 05:23:04;;;;;;;30.30;18.17;;;-1.90;99.90;;;;;;5110256;28;20031;-58
2021/12/11 05:25:30;;;;;;;31.52;18.60;;;-1.90;99.90;;;;;;5087554;28;20042;-57
2021/12/11 05:27:56;;;;;;;30.35;18.38;;;-1.80;99.90;;;;;;5110463;28;20071;-58
2021/12/11 05:30:27;;;;;;;30.27;18.85;;;-1.80;99.90;;;;;;5105568;28;20498;-57
2021/12/11 05:32:56;;;;;;;32.30;17.80;;;-1.80;99.90;;;;;;5093424;28;20502;-58
2021/12/11 05:35:23;;;;;;;30.50;18.30;;;-1.80;99.90;;;;;;5112565;28;20043;-58
2021/12/11 05:37:49;;;;;;;31.35;18.52;;;-1.80;99.90;;;;;;5113949;28;20035;-56
2021/12/11 05:40:20;;;;;;;30.00;17.30;;;-1.80;99.90;;;;;;5112729;28;20035;-57
2021/12/11 05:42:47;;;;;;;29.80;18.02;;;-1.80;99.90;;;;;;5113915;28;20040;-57
2021/12/11 05:45:13;;;;;;;30.50;17.42;;;-1.80;99.90;;;;;;5112146;28;20039;-56
2021/12/11 05:47:40;;;;;;;31.20;18.50;;;-1.90;99.90;;;;;;5095499;28;20035;-57
2021/12/11 05:50:09;;;;;;;31.20;18.50;;;-1.90;99.90;;;;;;5103260;28;20097;-57
2021/12/11 05:52:36;;;;;;;30.95;17.30;;;-1.90;99.90;;;;;;5113710;28;20063;-58
2021/12/11 05:55:05;;;;;;;30.50;18.02;;;-1.90;99.90;;;;;;5111685;28;20055;-57
2021/12/11 05:57:31;;;;;;;30.13;18.30;;;-1.90;99.90;;;;;;5113607;28;20046;-57
2021/12/11 05:59:57;;;;;;;35.50;19.67;;;-1.90;99.90;;;;;;5110943;28;20031;-57
2021/12/11 06:02:26;;;;;;;36.70;20.17;;;-2.00;99.90;;;;;;5079444;28;20127;-57
2021/12/11 06:04:54;;;;;;;34.78;19.50;;;-2.00;99.90;;;;;;5106930;28;20486;-58
2021/12/11 06:07:25;;;;;;;39.97;20.85;;;-2.00;99.90;;;;;;5113111;28;20031;-58
2021/12/11 06:09:58;;;;;;;34.90;19.48;;;-1.90;99.90;;;;;;5109442;28;20063;-58
2021/12/11 06:12:24;;;;;;;39.10;22.25;;;-1.90;99.90;;;;;;5113416;28;20042;-58
2021/12/11 06:14:51;;;;;;;39.08;21.92;;;-1.90;99.90;;;;;;5111569;28;20043;-57
2021/12/11 06:17:23;;;;;;;41.45;23.48;;;-1.90;99.90;;;;;;5113148;28;20096;-57
2021/12/11 06:19:52;;;;;;;41.10;22.95;;;-1.90;99.90;;;;;;5107507;28;20475;-57
2021/12/11 06:22:25;;;;;;;43.70;21.92;;;-1.90;99.90;;;;;;5094807;28;20039;-57
2021/12/11 06:24:52;;;;;;;46.03;23.85;;;-1.80;99.90;;;;;;5110183;28;20043;-58
2021/12/11 06:27:18;;;;;;;49.25;25.20;;;-1.80;99.90;;;;;;5113310;28;20126;-58
2021/12/11 06:29:45;;;;;;;47.88;25.20;;;-1.80;99.90;;;;;;5111400;28;20040;-56
2021/12/11 06:32:11;;;;;;;46.45;25.15;;;-1.80;99.90;;;;;;5107703;28;20173;-57
2021/12/11 06:34:37;;;;;;;41.92;23.88;;;-1.80;99.90;;;;;;5105591;28;20128;-57
2021/12/11 06:37:05;;;;;;;43.60;23.20;;;-1.70;99.90;;;;;;5112762;28;20042;-58
2021/12/11 06:39:31;;;;;;;44.83;24.05;;;-1.50;99.90;;;;;;5110312;28;20034;-58
2021/12/11 06:42:00;;;;;;;41.20;24.48;;;-1.80;99.90;;;;;;5112333;28;20120;-58
2021/12/11 06:44:28;;;;;;;39.78;23.15;;;-1.80;99.90;;;;;;5109444;28;20032;-59
2021/12/11 06:46:59;;;;;;;43.75;22.63;;;-1.80;99.90;;;;;;5110633;28;20035;-56
2021/12/11 06:49:27;;;;;;;39.15;22.67;;;-1.80;99.90;;;;;;5108841;28;21164;-58
2021/12/11 06:51:53;;;;;;;40.25;21.85;;;-1.80;99.90;;;;;;5077067;28;20050;-57
2021/12/11 06:54:19;;;;;;;39.08;20.80;;;-1.80;99.90;;;;;;5107826;28;20405;-57
2021/12/11 06:56:46;;;;;;;38.72;20.65;;;-1.90;99.90;;;;;;5112731;28;20032;-58
2021/12/11 06:59:12;;;;;;;37.75;20.35;;;-1.90;99.90;;;;;;5107489;28;20527;-58
2021/12/11 07:01:39;;;;;;;36.90;20.83;;;-1.90;99.90;;;;;;5108490;28;20044;-58
2021/12/11 07:04:07;;;;;;;39.60;21.90;;;-1.90;99.90;;;;;;5104809;28;20482;-58
2021/12/11 07:06:34;;;;;;;40.17;22.65;;;-1.90;99.90;;;;;;5110148;28;20111;-58
2021/12/11 07:09:00;;;;;;;38.60;22.55;;;-1.90;99.90;;;;;;5091624;28;20054;-56
2021/12/11 07:11:26;;;;;;;39.30;22.30;;;-1.90;99.90;;;;;;5094209;28;20036;-57
2021/12/11 07:13:53;;;;;;;41.47;23.00;;;-1.90;99.90;;;;;;5104023;28;20432;-58
2021/12/11 07:16:19;;;;;;;40.50;21.45;;;-1.90;99.90;;;;;;5112282;28;20036;-57
2021/12/11 07:18:45;;;;;;;44.13;22.92;;;-1.90;99.90;;;;;;5091835;28;20460;-57
2021/12/11 07:21:11;;;;;;;39.70;23.00;;;-1.80;99.90;;;;;;5110253;28;20081;-57
2021/12/11 07:23:45;;;;;;;45.53;24.42;;;-1.80;99.90;;;;;;5109628;28;20633;-57
2021/12/11 07:26:15;;;;;;;43.25;24.48;;;-1.80;99.90;;;;;;5093664;28;20097;-58
2021/12/11 07:28:43;;;;;;;41.72;23.73;;;-1.80;99.90;;;;;;5108757;28;20317;-57
2021/12/11 07:31:08;;;;;;;41.67;24.42;;;-1.80;99.90;;;;;;5111841;28;20115;-57
2021/12/11 07:33:34;;;;;;;44.15;24.90;;;-1.80;99.90;;;;;;5106175;28;20110;-56
2021/12/11 07:36:01;;;;;;;43.92;24.58;;;-1.00;99.90;;;;;;5110086;28;20035;-58
2021/12/11 07:38:27;;;;;;;44.03;26.00;;;-1.80;99.90;;;;;;5092893;28;20039;-57
2021/12/11 07:40:56;;;;;;;43.88;24.40;;;-1.80;99.90;;;;;;5108654;28;20100;-58
2021/12/11 07:43:25;;;;;;;46.30;23.92;;;-1.80;99.90;;;;;;5109724;28;20501;-58
2021/12/11 07:45:51;;;;;;;42.05;24.13;;;-1.80;99.90;;;;;;5109625;28;20478;-57
2021/12/11 07:48:17;;;;;;;44.47;25.20;;;-1.80;99.90;;;;;;5111063;28;20040;-58
2021/12/11 07:50:44;;;;;;;43.03;25.42;;;-1.80;99.90;;;;;;5105188;28;20092;-57
2021/12/11 07:53:11;;;;;;;44.97;25.38;;;-1.90;99.90;;;;;;5110632;28;20047;-58
2021/12/11 07:55:37;;;;;;;43.00;25.98;;;-1.80;99.90;;;;;;5091065;28;20041;-57
2021/12/11 07:58:04;;;;;;;52.25;26.85;;;-1.80;99.90;;;;;;5111549;28;20126;-57
2021/12/11 08:00:31;;;;;;;47.35;25.27;;;-1.80;99.90;;;;;;5109109;28;20043;-57
2021/12/11 08:02:57;;;;;;;45.88;25.85;;;-1.80;99.90;;;;;;5106970;28;20118;-57
2021/12/11 08:05:24;;;;;;;47.28;26.83;;;-1.80;99.90;;;;;;5105333;28;20115;-57
2021/12/11 08:07:50;;;;;;;46.40;25.45;;;-1.80;99.90;;;;;;5110805;28;20036;-57
2021/12/11 08:10:20;;;;;;;47.10;25.17;;;-1.80;99.90;;;;;;5106693;28;20058;-57
2021/12/11 08:12:46;;;;;;;61.78;34.17;;;-1.80;99.90;;;;;;5111166;28;20055;-58
2021/12/11 08:15:14;;;;;;;53.08;30.30;;;-1.80;99.90;;;;;;5109992;28;20573;-57
2021/12/11 08:17:40;;;;;;;59.10;32.17;;;-1.80;99.90;;;;;;5111182;28;20054;-57
2021/12/11 08:20:09;;;;;;;47.65;26.15;;;-1.80;99.90;;;;;;5086435;28;20059;-57
2021/12/11 08:22:35;;;;;;;49.92;25.92;;;-1.80;99.90;;;;;;5110753;28;20027;-57
2021/12/11 08:25:01;;;;;;;52.00;27.55;;;-1.70;99.90;;;;;;5106681;28;20031;-57
2021/12/11 08:27:27;;;;;;;48.70;26.83;;;-1.70;99.90;;;;;;5108159;28;20046;-57
2021/12/11 08:29:53;;;;;;;51.33;26.88;;;-1.70;99.90;;;;;;5089238;28;20044;-58
2021/12/11 08:32:20;;;;;;;51.88;27.85;;;-1.70;99.90;;;;;;5108622;28;20040;-57
2021/12/11 08:34:47;;;;;;;53.45;28.63;;;-1.80;99.90;;;;;;5105666;28;20296;-57
2021/12/11 08:37:15;;;;;;;52.47;28.48;;;-1.80;99.90;;;;;;5110997;28;20042;-58
2021/12/11 08:39:43;;;;;;;49.70;28.42;;;-1.80;99.90;;;;;;5107745;28;20055;-58
2021/12/11 08:42:14;;;;;;;48.95;27.60;;;-1.80;99.90;;;;;;5110877;28;20035;-58
2021/12/11 08:44:49;;;;;;;48.08;26.45;;;-1.70;99.90;;;;;;5108374;28;20039;-57
2021/12/11 08:47:16;;;;;;;51.85;28.20;;;-1.70;99.90;;;;;;5109674;28;20178;-58
2021/12/11 08:49:42;;;;;;;56.75;31.80;;;-1.70;99.90;;;;;;5107550;28;20046;-57
2021/12/11 08:52:32;;;;;;;58.50;31.40;;;-1.70;99.90;;;;;;5092596;28;20073;-57
2021/12/11 08:55:00;;;;;;;60.83;32.40;;;-1.60;99.90;;;;;;5105952;28;20096;-57
2021/12/11 08:57:32;;;;;;;62.35;33.42;;;-1.60;99.90;;;;;;5106971;28;20140;-56
2021/12/11 09:00:05;;;;;;;88.72;34.75;;;-1.60;99.90;;;;;;5107549;28;20041;-56
2021/12/11 09:02:42;;;;;;;167.70;39.15;;;-1.50;99.90;;;;;;5104650;28;20039;-57
2021/12/11 09:05:25;;;;;;;186.20;43.28;;;-1.50;99.90;;;;;;5106069;28;20035;-57
2021/12/11 09:08:05;;;;;;;240.80;45.20;;;-1.40;99.90;;;;;;5112999;28;20047;-57
2021/12/11 09:10:48;;;;;;;272.45;49.33;;;-1.40;99.90;;;;;;5106145;28;20510;-58
2021/12/11 09:13:31;;;;;;;218.10;45.65;;;-1.10;99.90;;;;;;5084457;28;20085;-57
2021/12/11 09:16:11;;;;;;;305.67;55.10;;;-1.30;99.90;;;;;;5105497;28;20514;-59
2021/12/11 09:18:51;;;;;;;291.50;51.67;;;-1.30;99.90;;;;;;5102261;28;20088;-59
2021/12/11 09:21:26;;;;;;;260.27;52.70;;;-1.20;99.90;;;;;;5103469;28;20063;-58
2021/12/11 09:24:08;;;;;;;319.55;57.72;;;-1.10;99.90;;;;;;5066592;28;20517;-58
2021/12/11 09:27:00;;;;;;;224.25;54.28;;;-1.10;99.90;;;;;;5105932;28;20482;-58
2021/12/11 09:29:31;;;;;;;240.45;53.25;;;-1.00;99.90;;;;;;5101396;28;20035;-59
2021/12/11 09:32:15;;;;;;;295.48;55.88;;;-1.00;99.90;;;;;;5102667;28;20040;-58
2021/12/11 09:34:51;;;;;;;249.45;52.88;;;-0.90;99.90;;;;;;5100562;28;20043;-59
2021/12/11 09:37:18;;;;;;;317.77;60.80;;;-0.90;99.90;;;;;;5085747;28;20826;-59
2021/12/11 09:39:55;;;;;;;252.90;56.70;;;-0.90;99.90;;;;;;5102166;28;20093;-59
2021/12/11 09:42:20;;;;;;;346.35;58.38;;;-0.80;99.90;;;;;;5093321;28;20782;-55
2021/12/11 09:45:05;;;;;;;274.83;55.05;;;-0.90;99.90;;;;;;5074370;28;20044;-57
2021/12/11 09:47:36;;;;;;;245.88;53.60;;;-0.80;99.90;;;;;;5072379;28;20268;-57
2021/12/11 09:50:09;;;;;;;263.90;53.50;;;-0.80;99.90;;;;;;5066982;28;20042;-58
2021/12/11 09:52:37;;;;;;;208.55;52.05;;;-0.80;99.90;;;;;;5048974;28;20044;-57
2021/12/11 09:55:23;;;;;;;178.40;48.92;;;-0.80;99.90;;;;;;5056272;28;20059;-58
2021/12/11 09:57:54;;;;;;;151.57;49.47;;;-0.70;99.90;;;;;;5080174;27;20082;-57
2021/12/11 10:00:37;;;;;;;141.95;47.38;;;-0.60;99.90;;;;;;5066891;28;20403;-57
2021/12/11 10:03:05;;;;;;;148.00;49.15;;;-0.60;99.90;;;;;;5066030;28;20486;-58
2021/12/11 10:05:43;;;;;;;111.75;46.50;;;-0.50;99.90;;;;;;5050770;28;20031;-58
2021/12/11 10:08:32;;;;;;;101.18;44.20;;;-0.40;99.90;;;;;;5065322;28;22231;-58
2021/12/11 10:11:20;;;;;;;86.25;41.45;;;-0.30;99.90;;;;;;5046950;28;20055;-58
2021/12/11 10:13:50;;;;;;;87.18;42.15;;;-0.20;99.90;;;;;;5063605;28;20132;-57
2021/12/11 10:16:20;;;;;;;86.28;43.17;;;0.00;99.90;;;;;;5065932;28;20202;-58
2021/12/11 10:18:47;;;;;;;83.63;42.58;;;0.20;99.90;;;;;;5065184;28;20042;-58
2021/12/11 10:21:21;;;;;;;77.57;41.08;;;0.50;99.90;;;;;;5068066;28;20036;-58
2021/12/11 10:23:51;;;;;;;62.72;35.22;;;0.90;99.90;;;;;;5052313;28;20036;-58
2021/12/11 10:26:19;;;;;;;55.65;32.40;;;1.30;99.90;;;;;;5065834;28;20044;-58
2021/12/11 10:28:49;;;;;;;46.60;28.42;;;1.50;99.90;;;;;;5066858;28;20048;-58
2021/12/11 10:31:19;;;;;;;43.63;26.27;;;1.80;99.90;;;;;;5062948;28;20051;-58
2021/12/11 10:33:46;;;;;;;37.63;23.63;;;2.10;99.90;;;;;;5066401;28;20040;-57
2021/12/11 10:36:15;;;;;;;40.85;23.77;;;2.40;99.90;;;;;;5065015;28;20113;-57
2021/12/11 10:38:43;;;;;;;40.88;23.23;;;2.60;99.90;;;;;;5067261;28;20048;-57
2021/12/11 10:41:10;;;;;;;37.80;22.55;;;2.80;99.90;;;;;;5067664;28;20070;-58
2021/12/11 10:43:42;;;;;;;34.58;22.13;;;3.00;99.90;;;;;;5065381;28;20055;-58
2021/12/11 10:46:13;;;;;;;36.08;22.83;;;3.40;99.90;;;;;;5046314;28;20040;-58
2021/12/11 10:48:39;;;;;;;37.13;22.63;;;3.20;99.90;;;;;;5068440;28;20498;-58
2021/12/11 10:51:12;;;;;;;35.42;23.02;;;3.30;99.90;;;;;;5064645;28;20031;-58
2021/12/11 10:53:42;;;;;;;37.35;23.45;;;3.40;99.90;;;;;;5043238;28;20444;-58
2021/12/11 10:56:09;;;;;;;39.28;23.60;;;3.40;99.90;;;;;;5044839;28;20097;-57
2021/12/11 10:58:46;;;;;;;43.13;24.58;;;3.30;99.90;;;;;;5045112;28;20047;-57
2021/12/11 11:01:29;;;;;;;41.33;24.25;;;3.20;99.90;;;;;;5063946;28;20746;-58
2021/12/11 11:03:59;;;;;;;43.47;25.30;;;3.10;99.90;;;;;;5068055;27;20071;-57
2021/12/11 11:06:26;;;;;;;38.88;24.25;;;3.20;99.90;;;;;;5067545;28;20703;-58
2021/12/11 11:08:52;;;;;;;41.03;24.45;;;3.40;99.90;;;;;;5049688;28;20182;-58
2021/12/11 11:11:22;;;;;;;42.22;25.65;;;3.70;99.90;;;;;;5043848;28;20055;-57
2021/12/11 11:13:48;;;;;;;42.40;26.10;;;3.50;99.90;;;;;;5066692;28;20459;-57
2021/12/11 11:16:18;;;;;;;40.60;25.30;;;3.50;99.90;;;;;;5065072;28;20063;-58
2021/12/11 11:18:44;;;;;;;38.97;23.42;;;3.50;99.90;;;;;;5061853;28;20181;-57
2021/12/11 11:21:21;;;;;;;36.53;23.65;;;3.70;99.90;;;;;;5048639;28;20044;-57
2021/12/11 11:23:48;;;;;;;41.70;23.50;;;3.70;99.90;;;;;;5062375;28;20103;-57
2021/12/11 11:26:18;;;;;;;39.33;22.85;;;3.80;99.90;;;;;;5072645;28;20100;-57
2021/12/11 11:28:44;;;;;;;36.38;23.77;;;3.90;99.90;;;;;;5104598;27;20048;-57
2021/12/11 11:31:16;;;;;;;33.53;22.67;;;4.00;99.90;;;;;;5072398;28;20465;-57
2021/12/11 11:33:44;;;;;;;36.10;22.88;;;4.10;99.90;;;;;;5072065;28;20036;-58
2021/12/11 11:36:13;;;;;;;39.40;23.58;;;4.20;99.90;;;;;;5089024;28;20055;-57
2021/12/11 11:38:43;;;;;;;37.95;22.85;;;4.20;99.90;;;;;;5092198;28;20036;-57
2021/12/11 11:41:19;;;;;;;35.40;22.20;;;4.40;99.90;;;;;;5085749;28;20028;-58
2021/12/11 11:43:46;;;;;;;39.10;23.08;;;4.40;99.90;;;;;;5067932;28;20126;-58
2021/12/11 11:46:13;;;;;;;36.03;22.58;;;4.50;99.90;;;;;;5064735;28;20080;-58
2021/12/11 11:48:43;;;;;;;34.08;22.17;;;4.50;99.90;;;;;;5066029;28;20422;-58
2021/12/11 11:51:17;;;;;;;36.92;22.45;;;4.60;99.90;;;;;;5063104;28;20054;-58
2021/12/11 11:53:44;;;;;;;36.72;21.90;;;4.70;99.90;;;;;;5059736;28;20488;-58
2021/12/11 11:56:14;;;;;;;38.40;22.52;;;4.70;99.90;;;;;;5064517;28;20041;-58
2021/12/11 11:58:39;;;;;;;37.47;22.98;;;4.80;99.90;;;;;;5065237;28;20122;-56
2021/12/11 12:01:13;;;;;;;39.25;22.40;;;4.80;99.90;;;;;;5064423;28;20036;-58
2021/12/11 12:03:39;;;;;;;38.47;23.27;;;4.80;99.90;;;;;;5061648;28;20204;-58
2021/12/11 12:06:10;;;;;;;39.80;23.23;;;4.90;99.90;;;;;;5065559;28;20043;-58
2021/12/11 12:08:40;;;;;;;40.15;22.02;;;5.00;99.90;;;;;;5064502;28;20257;-58
2021/12/11 12:11:06;;;;;;;37.95;23.08;;;5.10;99.90;;;;;;5029136;28;20060;-58
2021/12/11 12:13:32;;;;;;;42.70;24.67;;;5.30;99.90;;;;;;5028347;28;20183;-58
2021/12/11 12:16:06;;;;;;;45.35;25.33;;;5.10;99.90;;;;;;5026668;28;20047;-58
2021/12/11 12:18:32;;;;;;;46.72;25.08;;;5.20;99.90;;;;;;5030062;28;20044;-58
2021/12/11 12:20:59;;;;;;;41.60;23.65;;;5.10;99.90;;;;;;5033464;28;20579;-58
2021/12/11 12:23:31;;;;;;;40.72;24.65;;;5.10;99.90;;;;;;5027775;28;20048;-57
2021/12/11 12:26:01;;;;;;;43.60;23.13;;;5.10;99.90;;;;;;5044102;28;22424;-58
2021/12/11 12:28:31;;;;;;;44.10;23.73;;;5.20;99.90;;;;;;5049252;28;20086;-58
2021/12/11 12:31:01;;;;;;;43.60;23.25;;;5.30;99.90;;;;;;5049711;28;20399;-58
2021/12/11 12:33:28;;;;;;;45.53;23.08;;;5.40;99.90;;;;;;5047432;28;20079;-59
2021/12/11 12:35:54;;;;;;;43.67;24.00;;;5.50;99.90;;;;;;5050422;28;20036;-58
2021/12/11 12:38:23;;;;;;;43.40;24.35;;;5.60;99.90;;;;;;5051732;28;20075;-58
2021/12/11 12:41:01;;;;;;;45.15;23.38;;;5.50;99.90;;;;;;5055072;28;20029;-58
2021/12/11 12:46:18;;;;;;;37.35;21.67;;;5.60;99.90;;;;;;5055058;28;20131;-58
2021/12/11 12:48:45;;;;;;;38.63;22.10;;;5.70;99.90;;;;;;5053407;28;20040;-59
2021/12/11 12:51:13;;;;;;;38.25;22.10;;;5.80;99.90;;;;;;5051681;28;20120;-57
2021/12/11 12:53:44;;;;;;;36.97;21.77;;;5.80;99.90;;;;;;5053441;28;20361;-57
2021/12/11 12:56:16;;;;;;;38.65;22.98;;;5.80;99.90;;;;;;5082968;28;20127;-57
2021/12/11 12:58:55;;;;;;;39.13;22.67;;;5.80;99.90;;;;;;5058017;28;20704;-58